Elmswell, United Kingdom
Current Conditions -  °F | °C
As of 12:50 AM on Saturday 01 Nov 2014 (Local Time) from EGUW Reporting Station
Clear Clear  
Wind Chill: 14°   Ceiling: Unl
Heat Index: 14°   Visibility: 6mi
Dew Point: 11°   Wind: 8mph
Humidity: 82%   Direction: 180°S
Pressure: 29.94"   Gusts: NA
Location:  52.24°N, 0.91°E
Report Text: EGUW 010050Z AUTO 18007KT 9999 NCD 14/11 Q1014
Loading
Personal Weather Stations






























Interactive Weather Map
Tropical Storm Tracking
New forecast layout! Learn more

10-Day Weather Forecast

Advertisements
Track Severe Weather on mobile